Time;durP1;ratioP1;P1;durP2;ratioP2;P2;SDS_P1;SDS_P2;PMS_P1;PMS_P2;Temp;Humidity;BMP_temperature;BMP_pressure;BME280_temperature;BME280_humidity;BME280_pressure;Samples;Min_cycle;Max_cycle;Signal;HPM_P1;HPM_P2
2022/06/06 00:03:17;;;;;;;2.53;2.33;;;19.00;99.90;;;;;;10265107;28;20241;-87
2022/06/06 00:08:19;;;;;;;2.70;2.37;;;19.00;99.90;;;;;;10282012;28;20288;-87
2022/06/06 00:13:21;;;;;;;4.45;2.47;;;19.00;99.90;;;;;;10270497;28;20612;-87
2022/06/06 00:18:24;;;;;;;3.10;2.13;;;19.00;99.90;;;;;;10275716;28;20225;-86
2022/06/06 00:23:27;;;;;;;2.25;2.05;;;19.00;99.90;;;;;;10292875;28;20238;-86
2022/06/06 00:28:29;;;;;;;2.47;2.27;;;19.00;99.90;;;;;;10286840;28;20241;-86
2022/06/06 00:38:54;;;;;;;2.55;2.35;;;19.00;99.90;;;;;;10290465;28;20261;-87
2022/06/06 00:44:04;;;;;;;2.40;2.20;;;19.00;99.90;;;;;;10283243;28;20304;-86
2022/06/06 00:49:14;;;;;;;2.35;2.15;;;19.00;99.90;;;;;;10274646;28;20264;-87
2022/06/06 00:54:17;;;;;;;2.67;2.10;;;19.00;99.90;;;;;;10285288;28;20630;-86
2022/06/06 00:59:27;;;;;;;2.38;2.20;;;19.00;99.90;;;;;;10286995;28;20574;-86
2022/06/06 01:04:31;;;;;;;2.20;2.00;;;19.00;99.90;;;;;;10291789;28;20614;-87
2022/06/06 01:09:34;;;;;;;2.42;2.22;;;18.90;99.90;;;;;;10282102;28;20632;-86
2022/06/06 01:15:04;;;;;;;2.42;2.22;;;19.00;99.90;;;;;;10251630;29;20297;-86
2022/06/06 01:20:32;;;;;;;2.70;2.50;;;19.00;99.90;;;;;;10270081;28;20724;-87
2022/06/06 01:25:53;;;;;;;5.00;3.17;;;18.90;99.90;;;;;;10290826;28;20241;-87
2022/06/06 01:31:00;;;;;;;2.47;2.13;;;19.00;99.90;;;;;;10263013;28;20662;-85
2022/06/06 01:36:02;;;;;;;3.87;2.13;;;18.90;99.90;;;;;;10271404;28;20696;-86
2022/06/06 01:41:11;;;;;;;1.77;1.67;;;19.00;99.90;;;;;;10288962;28;20702;-86
2022/06/06 01:46:22;;;;;;;2.50;2.30;;;18.90;99.90;;;;;;10272472;28;20233;-86
2022/06/06 01:51:28;;;;;;;2.00;1.80;;;18.90;99.90;;;;;;10278570;28;20268;-85
2022/06/06 01:56:36;;;;;;;1.80;1.70;;;18.90;99.90;;;;;;10273932;28;20245;-86
2022/06/06 02:01:39;;;;;;;2.30;2.10;;;18.90;99.90;;;;;;10271527;28;20311;-86
2022/06/06 02:06:42;;;;;;;2.85;2.45;;;18.90;99.90;;;;;;10283720;28;20226;-86
2022/06/06 02:11:44;;;;;;;2.38;2.17;;;18.90;99.90;;;;;;10271187;28;20257;-86
2022/06/06 02:16:47;;;;;;;2.92;2.72;;;18.90;99.90;;;;;;10288731;28;20229;-86
2022/06/06 02:21:49;;;;;;;2.30;2.10;;;18.90;99.90;;;;;;10281230;28;20638;-86
2022/06/06 02:26:52;;;;;;;2.33;2.08;;;18.80;99.90;;;;;;10247895;29;20265;-86
2022/06/06 02:31:54;;;;;;;2.60;2.33;;;18.90;99.90;;;;;;10260324;28;20272;-86
2022/06/06 02:36:57;;;;;;;2.67;2.47;;;18.80;99.90;;;;;;10262146;28;20666;-86
2022/06/06 02:41:59;;;;;;;3.15;1.83;;;18.90;99.90;;;;;;10279524;28;20628;-86
2022/06/06 02:47:03;;;;;;;2.30;2.10;;;18.90;99.90;;;;;;10270438;28;20291;-86
2022/06/06 02:52:06;;;;;;;2.60;2.40;;;18.90;99.90;;;;;;10258403;28;20297;-86
2022/06/06 02:57:09;;;;;;;2.47;2.27;;;18.90;99.90;;;;;;10281001;28;20826;-86
2022/06/06 03:02:11;;;;;;;3.00;2.03;;;19.00;99.90;;;;;;10286548;28;20236;-86
2022/06/06 03:07:32;;;;;;;3.03;2.72;;;18.90;99.90;;;;;;10268541;28;20213;-86
2022/06/06 03:13:00;;;;;;;2.80;2.50;;;19.00;99.90;;;;;;10286006;28;20703;-86
2022/06/06 03:24:03;;;;;;;2.80;2.50;;;19.00;99.90;;;;;;10284986;28;20245;-86
2022/06/06 03:29:24;;;;;;;3.03;2.83;;;19.00;99.90;;;;;;10274971;28;20272;-86
2022/06/06 03:34:58;;;;;;;2.47;2.27;;;19.10;99.90;;;;;;10272317;28;20315;-86
2022/06/06 03:40:25;;;;;;;2.37;2.17;;;19.10;99.90;;;;;;10286201;28;20265;-86
2022/06/06 03:45:42;;;;;;;2.50;2.30;;;19.10;99.90;;;;;;10250138;28;20624;-86
2022/06/06 03:50:47;;;;;;;2.27;2.07;;;19.10;99.90;;;;;;10253793;29;20601;-86
2022/06/06 03:56:00;;;;;;;2.38;2.17;;;19.20;99.90;;;;;;10265719;28;20295;-86
2022/06/06 04:01:07;;;;;;;2.35;2.08;;;19.20;99.90;;;;;;10292160;28;20233;-86
2022/06/06 04:06:10;;;;;;;2.97;2.72;;;19.20;99.90;;;;;;10276645;28;20653;-86
2022/06/06 04:11:25;;;;;;;2.80;2.13;;;19.20;99.90;;;;;;10253368;29;20238;-86
2022/06/06 04:16:46;;;;;;;2.15;2.03;;;19.20;99.90;;;;;;10288421;28;20257;-86
2022/06/06 04:21:54;;;;;;;2.65;2.42;;;19.30;99.90;;;;;;10275367;28;20607;-86
2022/06/06 04:27:23;;;;;;;2.35;2.15;;;19.20;99.90;;;;;;10270674;28;20244;-86
2022/06/06 04:32:49;;;;;;;3.10;2.60;;;19.20;99.90;;;;;;10240300;28;20265;-86
2022/06/06 04:38:28;;;;;;;2.40;2.20;;;19.20;99.90;;;;;;10290597;28;20225;-87
2022/06/06 04:43:39;;;;;;;2.42;2.22;;;19.30;99.80;;;;;;10283670;28;20249;-86
2022/06/06 04:48:44;;;;;;;2.60;2.30;;;19.30;99.80;;;;;;10278098;28;20266;-87
2022/06/06 04:53:51;;;;;;;3.25;2.85;;;19.30;99.70;;;;;;10280030;28;20237;-86
2022/06/06 04:58:57;;;;;;;2.33;2.10;;;19.30;99.70;;;;;;10249392;28;20206;-86
2022/06/06 05:03:59;;;;;;;5.50;2.88;;;19.30;99.70;;;;;;10258801;28;20226;-86
2022/06/06 05:09:10;;;;;;;2.53;2.33;;;19.30;99.70;;;;;;10272361;28;20256;-86
2022/06/06 05:14:30;;;;;;;11.77;9.60;;;19.30;99.60;;;;;;10571901;23;20225;-95
2022/06/06 05:19:54;;;;;;;14.57;9.17;;;19.10;99.90;;;;;;10277551;28;20214;-96
2022/06/06 05:25:08;;;;;;;8.23;7.10;;;19.10;99.90;;;;;;10320314;28;20206;-96
2022/06/06 05:30:45;;;;;;;10.10;7.80;;;19.20;99.90;;;;;;10291699;28;20210;-96
2022/06/06 05:36:09;;;;;;;15.88;12.02;;;19.30;99.90;;;;;;10296779;28;20238;-96
2022/06/06 05:41:33;;;;;;;7.53;6.73;;;19.40;99.90;;;;;;10309777;28;20221;-96
2022/06/06 05:46:52;;;;;;;8.83;7.03;;;19.50;99.90;;;;;;10293372;28;20260;-96
2022/06/06 05:52:22;;;;;;;12.13;7.35;;;19.50;99.90;;;;;;10308966;28;20202;-96
2022/06/06 05:57:40;;;;;;;11.93;8.65;;;19.60;99.90;;;;;;10283008;28;20210;-96
2022/06/06 06:03:04;;;;;;;7.57;6.63;;;19.60;99.90;;;;;;10278740;28;20256;-95
2022/06/06 06:08:10;;;;;;;9.05;8.07;;;19.70;99.90;;;;;;10274705;28;20206;-95
2022/06/06 06:13:51;;;;;;;12.88;10.77;;;19.90;99.90;;;;;;10308113;28;20284;-96
2022/06/06 06:18:59;;;;;;;12.82;8.82;;;19.80;99.90;;;;;;10289987;28;20237;-96
2022/06/06 06:24:09;;;;;;;8.20;7.40;;;20.00;99.90;;;;;;10279456;28;20234;-96
2022/06/06 06:29:12;;;;;;;8.75;7.03;;;20.00;99.80;;;;;;10275837;28;20269;-96
2022/06/06 06:34:27;;;;;;;8.65;7.28;;;20.00;99.60;;;;;;10279136;28;20257;-96
2022/06/06 06:39:32;;;;;;;7.50;6.80;;;20.00;99.90;;;;;;10252489;28;20214;-96
2022/06/06 06:44:46;;;;;;;8.07;7.38;;;20.10;99.60;;;;;;10269489;28;20209;-96
2022/06/06 06:50:18;;;;;;;7.30;6.60;;;20.20;99.50;;;;;;10289502;28;20233;-96
2022/06/06 06:55:53;;;;;;;7.47;6.78;;;20.30;99.20;;;;;;10263045;28;20248;-96
2022/06/06 07:01:16;;;;;;;7.60;6.90;;;20.50;99.80;;;;;;10310585;28;20233;-96
2022/06/06 07:12:53;;;;;;;9.65;8.68;;;20.70;98.50;;;;;;10317638;28;20217;-96
2022/06/06 07:18:13;;;;;;;8.32;7.47;;;21.00;99.90;;;;;;10290644;28;20230;-96
2022/06/06 07:23:22;;;;;;;10.60;8.02;;;21.20;98.10;;;;;;10296808;28;20194;-96
2022/06/06 07:28:25;;;;;;;10.70;7.47;;;21.30;99.70;;;;;;10305939;28;20210;-96
2022/06/06 08:02:21;;;;;;;21.70;12.35;;;21.30;99.90;;;;;;12679288;23;20197;31
2022/06/06 08:19:06;;;;;;;12.30;11.00;;;21.00;99.90;;;;;;11671604;23;20269;-96
2022/06/06 08:24:25;;;;;;;12.27;10.30;;;21.00;99.90;;;;;;10331292;28;20209;-96
2022/06/06 08:29:49;;;;;;;10.90;9.82;;;21.20;99.90;;;;;;10284919;28;20269;-94
2022/06/06 08:34:52;;;;;;;12.43;11.07;;;21.20;99.90;;;;;;10273042;28;20320;-93
2022/06/06 08:40:27;;;;;;;13.98;11.68;;;21.50;99.90;;;;;;10271600;28;20225;-93
2022/06/06 08:46:10;;;;;;;11.77;10.25;;;21.50;99.90;;;;;;10270756;28;20264;-93
2022/06/06 08:51:41;;;;;;;14.52;10.25;;;21.30;99.90;;;;;;10326557;28;20216;-92
2022/06/06 08:57:19;;;;;;;11.55;10.50;;;21.40;99.90;;;;;;10266343;28;20253;-92
2022/06/06 09:02:43;;;;;;;10.85;9.77;;;21.40;99.90;;;;;;10112312;29;21523;-94
2022/06/06 09:07:58;;;;;;;14.57;11.02;;;21.70;99.90;;;;;;10109719;29;20655;-92
2022/06/06 09:13:04;;;;;;;11.80;10.07;;;22.10;99.90;;;;;;10106040;29;20279;-93
2022/06/06 09:18:25;;;;;;;16.35;12.85;;;22.20;99.90;;;;;;10105842;29;20252;-94
2022/06/06 09:23:48;;;;;;;11.70;10.60;;;22.40;99.90;;;;;;10099484;29;20208;-92
2022/06/06 09:29:20;;;;;;;15.63;10.43;;;21.80;99.90;;;;;;10126590;29;20287;-93
2022/06/06 09:35:15;;;;;;;12.55;10.43;;;22.10;99.90;;;;;;10199014;28;20261;-93
2022/06/06 09:40:44;;;;;;;14.63;12.82;;;21.80;99.90;;;;;;10277754;28;20229;-91
2022/06/06 09:45:50;;;;;;;11.25;10.07;;;21.50;99.90;;;;;;10273218;28;20265;-93
2022/06/06 09:51:19;;;;;;;10.55;9.52;;;21.40;99.90;;;;;;10278232;28;20256;-94
2022/06/06 10:02:34;;;;;;;11.05;9.93;;;22.30;99.90;;;;;;10283976;28;20201;-93
2022/06/06 10:07:56;;;;;;;16.75;14.30;;;22.10;99.90;;;;;;10256608;28;20206;-94
2022/06/06 10:13:07;;;;;;;16.88;13.05;;;22.20;99.90;;;;;;10293358;28;20620;-94
2022/06/06 10:18:12;;;;;;;10.95;9.73;;;22.50;99.90;;;;;;10271366;28;20746;-94
2022/06/06 10:23:23;;;;;;;11.40;9.98;;;21.90;99.90;;;;;;10267201;28;20620;-94
2022/06/06 10:28:51;;;;;;;21.58;15.32;;;22.10;99.90;;;;;;10266569;28;20462;-94
2022/06/06 10:34:18;;;;;;;11.70;10.00;;;22.60;99.90;;;;;;10278187;28;20318;-92
2022/06/06 10:39:45;;;;;;;21.10;14.88;;;22.60;99.90;;;;;;10272816;28;20197;-93
2022/06/06 10:45:11;;;;;;;17.63;15.73;;;23.00;99.90;;;;;;10234324;28;20205;-92
2022/06/06 10:51:36;;;;;;;16.92;14.90;;;23.10;99.90;;;;;;10271624;28;20292;-92
2022/06/06 10:56:33;;;;;;;23.45;16.40;;;23.00;99.90;;;;;;10288239;28;20640;-93
2022/06/06 11:01:54;;;;;;;17.98;16.08;;;23.10;99.90;;;;;;10274159;28;20204;-93
2022/06/06 11:07:00;;;;;;;12.80;11.40;;;23.00;99.90;;;;;;10284688;28;20221;-92
2022/06/06 11:12:18;;;;;;;11.90;10.70;;;22.70;99.80;;;;;;10310284;28;20190;-94
2022/06/06 11:17:23;;;;;;;12.07;9.85;;;21.90;99.90;;;;;;10327087;28;20237;-95
2022/06/06 11:22:32;;;;;;;12.02;10.82;;;21.40;99.90;;;;;;10306709;28;20209;-96
2022/06/06 11:28:04;;;;;;;16.20;14.53;;;21.10;99.90;;;;;;10325450;28;20221;-95
2022/06/06 11:33:31;;;;;;;11.43;10.15;;;20.80;99.90;;;;;;10303458;28;20290;-95
2022/06/06 11:38:52;;;;;;;12.07;10.82;;;20.70;99.90;;;;;;10332067;28;20190;-95
2022/06/06 11:44:10;;;;;;;13.57;12.18;;;20.60;99.90;;;;;;10318991;28;20244;-79
2022/06/06 11:49:31;;;;;;;20.42;17.55;;;20.50;99.90;;;;;;10301258;28;20229;-79
2022/06/06 11:54:52;;;;;;;20.63;18.42;;;20.60;99.90;;;;;;10320967;28;20264;-79
2022/06/06 12:00:07;;;;;;;22.88;17.00;;;20.60;99.90;;;;;;10319855;28;20752;-79
2022/06/06 12:05:31;;;;;;;29.50;22.75;;;20.50;99.90;;;;;;10321240;28;20263;-79
2022/06/06 12:10:49;;;;;;;30.02;24.73;;;20.40;99.90;;;;;;10320696;28;20756;-79
2022/06/06 12:16:13;;;;;;;34.97;28.67;;;20.30;99.90;;;;;;10322735;28;20294;-79
2022/06/06 12:22:04;;;;;;;16.20;14.50;;;20.20;99.90;;;;;;10333353;28;20232;-79
2022/06/06 12:27:24;;;;;;;16.88;15.02;;;20.40;99.90;;;;;;10316399;28;20651;-79
2022/06/06 12:32:45;;;;;;;31.00;22.50;;;20.50;99.90;;;;;;10333338;28;20783;-79
2022/06/06 12:38:15;;;;;;;17.10;15.30;;;20.40;99.90;;;;;;10332013;28;20720;-79
2022/06/06 12:43:44;;;;;;;17.00;15.27;;;20.30;99.90;;;;;;10314667;28;20737;-79
2022/06/06 12:49:06;;;;;;;19.70;17.43;;;20.20;99.90;;;;;;10333059;28;20208;-79
2022/06/06 13:00:08;;;;;;;30.33;25.97;;;20.00;99.90;;;;;;10306863;28;20200;-77
2022/06/06 13:05:33;;;;;;;27.85;23.35;;;20.30;99.90;;;;;;10315004;28;20205;-77
2022/06/06 13:11:02;;;;;;;29.35;25.15;;;20.70;99.90;;;;;;10297434;28;20202;-77
2022/06/06 13:16:18;;;;;;;25.33;20.90;;;21.10;99.90;;;;;;10336072;28;20656;-77
2022/06/06 13:21:40;;;;;;;25.73;21.67;;;21.30;99.90;;;;;;10315279;28;20576;-78
2022/06/06 13:26:47;;;;;;;23.08;20.48;;;21.40;99.90;;;;;;10326180;28;20296;-78
2022/06/06 13:32:13;;;;;;;24.55;20.58;;;21.60;99.90;;;;;;10314364;28;20752;-79
2022/06/06 13:37:54;;;;;;;20.33;18.05;;;21.50;99.90;;;;;;10308297;28;20228;-79
2022/06/06 13:43:15;;;;;;;22.80;18.30;;;21.90;99.90;;;;;;10321263;28;20799;-78
2022/06/06 13:48:27;;;;;;;28.48;21.63;;;21.70;99.90;;;;;;10331970;28;20553;-78
2022/06/06 13:53:38;;;;;;;16.55;14.85;;;21.50;99.90;;;;;;10328769;28;20228;-78
2022/06/06 13:58:52;;;;;;;17.48;15.57;;;22.00;99.90;;;;;;10327864;28;20307;-81
2022/06/06 14:04:14;;;;;;;21.23;19.08;;;22.30;99.90;;;;;;10343662;28;20233;-79
2022/06/06 14:09:17;;;;;;;17.15;15.23;;;21.90;99.90;;;;;;10319504;28;20645;-79
2022/06/06 14:14:22;;;;;;;15.77;14.13;;;22.40;99.90;;;;;;10310965;28;20252;-78
2022/06/06 14:19:46;;;;;;;15.93;14.32;;;22.60;99.90;;;;;;10325605;28;20277;-78
2022/06/06 14:24:53;;;;;;;25.45;21.98;;;22.80;99.90;;;;;;10326993;28;20228;-78
2022/06/06 14:30:08;;;;;;;14.65;13.15;;;22.90;99.90;;;;;;10325554;28;20271;-78
2022/06/06 14:35:16;;;;;;;21.63;19.27;;;22.90;99.90;;;;;;10322901;28;20243;-78
2022/06/06 14:40:40;;;;;;;17.63;15.75;;;22.90;99.90;;;;;;10324082;28;20315;-78
2022/06/06 14:45:44;;;;;;;15.23;13.70;;;23.00;99.90;;;;;;10323726;28;20763;-77
2022/06/06 14:50:57;;;;;;;23.33;19.88;;;22.80;99.90;;;;;;10318432;28;20233;-77
2022/06/06 14:56:09;;;;;;;13.77;12.45;;;22.80;99.90;;;;;;10304804;28;20635;-78
2022/06/06 15:01:18;;;;;;;14.35;12.95;;;22.70;99.90;;;;;;10324023;28;20232;-78
2022/06/06 15:06:23;;;;;;;15.68;13.50;;;22.90;99.90;;;;;;10319530;28;20232;-77
2022/06/06 15:11:29;;;;;;;17.00;15.30;;;;;;;;;;10316954;28;20240;-78
2022/06/06 15:16:33;;;;;;;13.65;12.30;;;22.90;99.90;;;;;;10305982;28;20318;-77
2022/06/06 15:21:41;;;;;;;12.95;11.75;;;22.90;99.90;;;;;;10320525;28;20634;-77
2022/06/06 15:27:07;;;;;;;23.75;19.85;;;23.00;99.90;;;;;;10307900;28;20298;-77
2022/06/06 15:32:24;;;;;;;22.38;19.50;;;22.80;99.90;;;;;;10289119;28;20693;-77
2022/06/06 15:37:27;;;;;;;21.70;19.33;;;22.80;99.90;;;;;;10286815;28;20249;-78
2022/06/06 15:42:43;;;;;;;21.02;18.20;;;22.90;99.90;;;;;;10274725;28;20328;-78
2022/06/06 15:48:21;;;;;;;20.58;18.38;;;22.90;99.90;;;;;;10296391;28;20236;-77
2022/06/06 15:53:53;;;;;;;19.60;17.02;;;22.80;99.90;;;;;;10255846;28;20241;-78
2022/06/06 15:59:46;;;;;;;20.15;18.15;;;22.70;99.90;;;;;;10291715;28;20261;-78
2022/06/06 16:05:27;;;;;;;17.38;15.57;;;22.70;99.90;;;;;;10253319;28;20249;-78
2022/06/06 16:10:32;;;;;;;17.38;15.77;;;22.50;99.90;;;;;;10164271;29;20255;-78
2022/06/06 16:15:57;;;;;;;17.75;15.88;;;22.60;99.90;;;;;;10184693;29;20270;-77
2022/06/06 16:21:07;;;;;;;15.70;14.20;;;22.70;99.90;;;;;;10151523;29;20267;-78
2022/06/06 16:26:23;;;;;;;16.85;15.13;;;22.60;99.90;;;;;;10169968;29;20255;-77
2022/06/06 16:31:37;;;;;;;17.20;15.60;;;22.70;99.90;;;;;;10167697;29;20318;-77
2022/06/06 16:36:57;;;;;;;15.93;14.10;;;22.70;99.90;;;;;;10153389;29;20256;-77
2022/06/06 16:47:56;;;;;;;14.65;13.27;;;22.90;99.90;;;;;;10279599;28;20778;-77
2022/06/06 16:53:17;;;;;;;15.27;13.68;;;22.90;99.90;;;;;;10327777;28;20236;-77
2022/06/06 16:58:54;;;;;;;14.82;13.43;;;22.90;99.90;;;;;;10310930;28;20252;-77
2022/06/06 17:04:20;;;;;;;14.48;12.95;;;23.00;99.90;;;;;;10301524;28;20275;-77
2022/06/06 17:09:44;;;;;;;13.75;12.50;;;22.90;99.90;;;;;;10341714;28;20644;-78
2022/06/06 17:14:48;;;;;;;15.15;13.68;;;22.90;99.90;;;;;;10301886;28;20245;-78
2022/06/06 17:20:14;;;;;;;14.52;13.18;;;22.90;99.90;;;;;;10328302;28;20650;-79
2022/06/06 17:25:35;;;;;;;19.38;15.48;;;22.80;99.90;;;;;;10309951;28;20291;-79
2022/06/06 17:30:38;;;;;;;19.38;15.30;;;22.50;99.90;;;;;;10328629;28;20310;-80
2022/06/06 17:35:59;;;;;;;17.17;15.30;;;22.20;99.90;;;;;;10287667;28;20299;-79
2022/06/06 17:41:05;;;;;;;18.65;16.60;;;21.70;99.90;;;;;;10305028;28;20311;-80
2022/06/06 17:46:18;;;;;;;18.67;15.20;;;21.80;99.90;;;;;;10312101;28;20233;-78
2022/06/06 17:51:40;;;;;;;21.27;15.45;;;21.40;99.90;;;;;;10311242;28;20295;-79
2022/06/06 17:57:01;;;;;;;19.02;15.23;;;21.60;99.90;;;;;;10298671;28;20276;-79
2022/06/06 18:02:13;;;;;;;18.60;15.23;;;21.70;99.90;;;;;;10295974;28;20240;-78
2022/06/06 18:07:48;;;;;;;18.05;15.07;;;21.70;99.90;;;;;;10312647;28;20256;-79
2022/06/06 18:13:09;;;;;;;20.08;15.13;;;21.70;99.90;;;;;;10251014;28;20279;-79
2022/06/06 18:18:14;;;;;;;16.48;14.45;;;21.80;99.90;;;;;;10285626;28;20710;-79
2022/06/06 18:23:23;;;;;;;21.77;19.40;;;21.70;99.90;;;;;;10292050;28;20682;-79
2022/06/06 18:28:31;;;;;;;21.15;18.85;;;;;;;;;;10322641;28;20315;-80
2022/06/06 18:33:40;;;;;;;21.38;18.48;;;20.10;99.90;;;;;;10326409;28;20283;-80
2022/06/06 18:38:47;;;;;;;24.90;21.27;;;20.70;99.90;;;;;;10289083;28;20256;-80
2022/06/06 18:43:51;;;;;;;24.15;21.48;;;20.80;99.90;;;;;;10294319;28;20268;-79
2022/06/06 18:48:58;;;;;;;25.75;22.77;;;20.80;99.90;;;;;;10309632;28;20236;-80
2022/06/06 18:54:05;;;;;;;22.15;19.70;;;19.30;99.90;;;;;;10316202;28;20236;-79
2022/06/06 18:59:36;;;;;;;20.05;17.95;;;19.60;99.90;;;;;;10324345;28;20260;-78
2022/06/06 19:04:45;;;;;;;20.23;17.90;;;20.30;99.90;;;;;;10326820;28;20232;-78
2022/06/06 19:10:13;;;;;;;20.20;18.10;;;20.60;99.90;;;;;;10298103;28;20687;-78
2022/06/06 19:15:24;;;;;;;20.80;18.13;;;20.70;99.90;;;;;;10303688;28;20244;-77
2022/06/06 19:20:38;;;;;;;20.33;17.83;;;20.80;99.90;;;;;;10309020;28;20294;-78
2022/06/06 19:25:55;;;;;;;20.23;17.48;;;20.80;99.90;;;;;;10310961;28;20311;-78
2022/06/06 19:31:22;;;;;;;19.50;17.50;;;20.80;99.90;;;;;;10330672;28;20291;-78
2022/06/06 19:36:27;;;;;;;20.10;17.42;;;20.90;99.90;;;;;;10313030;28;20712;-78
2022/06/06 19:41:30;;;;;;;19.20;17.27;;;20.90;99.90;;;;;;10297961;28;20257;-78
2022/06/06 19:46:34;;;;;;;22.02;17.40;;;20.90;99.90;;;;;;10275920;28;20806;-78
2022/06/06 19:51:49;;;;;;;19.10;17.17;;;20.90;99.90;;;;;;10300027;28;20240;-78
2022/06/06 19:57:00;;;;;;;19.60;17.55;;;20.70;99.90;;;;;;10325566;28;20249;-79
2022/06/06 20:02:04;;;;;;;19.20;17.20;;;20.70;99.90;;;;;;10279498;28;20220;-79
2022/06/06 20:07:31;;;;;;;18.13;16.15;;;20.70;99.90;;;;;;10308740;28;20221;-79
2022/06/06 20:12:34;;;;;;;17.40;15.60;;;20.70;99.90;;;;;;9967874;28;10000217;-79
2022/06/06 20:17:44;;;;;;;19.02;17.13;;;20.70;99.90;;;;;;10300343;28;20652;-77
2022/06/06 20:23:13;;;;;;;17.67;15.95;;;20.50;99.90;;;;;;10300729;28;20234;-77
2022/06/06 20:28:19;;;;;;;18.73;16.60;;;20.60;99.90;;;;;;10299564;28;20693;-77
2022/06/06 20:33:39;;;;;;;19.05;17.13;;;20.50;99.90;;;;;;10304435;28;20225;-78
2022/06/06 20:39:01;;;;;;;21.42;17.58;;;20.60;99.90;;;;;;10312207;28;20836;-78
2022/06/06 20:44:13;;;;;;;20.58;17.92;;;20.60;99.90;;;;;;10302826;28;20299;-79
2022/06/06 20:49:30;;;;;;;17.83;15.95;;;20.60;99.90;;;;;;10294656;28;20241;-78
2022/06/06 20:54:50;;;;;;;20.35;18.17;;;20.50;99.90;;;;;;10328028;28;20657;-77
2022/06/06 20:59:53;;;;;;;19.40;17.38;;;20.60;99.90;;;;;;10321802;28;20318;-77
2022/06/06 21:04:56;;;;;;;20.02;17.92;;;20.50;99.90;;;;;;10329810;28;20229;-78
2022/06/06 21:10:11;;;;;;;18.95;16.95;;;20.50;99.90;;;;;;10328883;28;20291;-78
2022/06/06 21:15:14;;;;;;;19.85;16.90;;;20.60;99.90;;;;;;10285027;28;20779;-77
2022/06/06 21:20:19;;;;;;;20.90;17.30;;;20.60;99.90;;;;;;10316304;28;20260;-78
2022/06/06 21:25:23;;;;;;;18.90;16.73;;;20.50;99.90;;;;;;10326611;28;20197;-78
2022/06/06 21:30:25;;;;;;;18.65;16.67;;;20.40;99.90;;;;;;10317766;28;20284;-79
2022/06/06 21:35:28;;;;;;;19.25;17.15;;;20.40;99.90;;;;;;10290134;28;20233;-78
2022/06/06 21:40:32;;;;;;;18.73;16.08;;;20.40;99.90;;;;;;10281353;28;20260;-78
2022/06/06 21:45:34;;;;;;;18.98;17.08;;;20.40;99.90;;;;;;10288623;28;20702;-78
2022/06/06 21:51:35;;;;;;;30.48;24.63;;;20.30;99.90;;;;;;10291896;28;20229;-78
2022/06/06 21:55:59;;;;;;;21.15;18.48;;;19.80;99.90;;;;;;10298326;28;20679;-78
2022/06/06 22:01:02;;;;;;;32.35;26.33;;;18.80;99.90;;;;;;10312553;28;20213;-78
2022/06/06 22:06:05;;;;;;;32.33;20.70;;;18.20;99.90;;;;;;10319190;28;20626;-78
2022/06/06 22:11:08;;;;;;;18.30;12.53;;;17.10;99.90;;;;;;10292357;28;20682;-78
2022/06/06 22:16:11;;;;;;;18.07;11.57;;;16.40;99.90;;;;;;10287815;28;20248;-77
2022/06/06 22:21:14;;;;;;;15.43;12.60;;;16.10;99.90;;;;;;10304194;28;20740;-78
2022/06/06 22:26:18;;;;;;;17.47;15.67;;;16.40;99.90;;;;;;10322046;28;20259;-84
2022/06/06 22:31:21;;;;;;;16.27;14.67;;;17.70;99.90;;;;;;10316210;28;21141;-78
2022/06/06 22:36:25;;;;;;;16.50;14.65;;;18.30;99.90;;;;;;10327567;28;20248;-79
2022/06/06 22:41:27;;;;;;;17.38;13.50;;;19.00;99.90;;;;;;10327870;28;20261;-78
2022/06/06 22:46:30;;;;;;;14.60;13.10;;;19.40;99.90;;;;;;10327831;28;20666;-78
2022/06/06 22:51:33;;;;;;;14.63;13.13;;;19.70;99.90;;;;;;10285722;28;20370;-79
2022/06/06 22:56:36;;;;;;;14.98;13.38;;;19.90;99.90;;;;;;10300693;28;20248;-78
2022/06/06 23:01:41;;;;;;;13.52;11.95;;;20.10;99.90;;;;;;10285748;28;20268;-79
2022/06/06 23:06:43;;;;;;;13.68;12.32;;;20.10;99.90;;;;;;10287661;28;20237;-79
2022/06/06 23:11:46;;;;;;;11.60;10.40;;;20.20;99.90;;;;;;10310873;28;20304;-79
2022/06/06 23:16:48;;;;;;;13.10;11.75;;;20.30;99.90;;;;;;10318753;28;20302;-78
2022/06/06 23:21:52;;;;;;;13.45;12.07;;;20.30;99.90;;;;;;10309676;28;20230;-79
2022/06/06 23:26:56;;;;;;;12.55;11.32;;;20.30;99.90;;;;;;10327211;28;20260;-78
2022/06/06 23:31:59;;;;;;;12.00;10.80;;;20.40;99.90;;;;;;10289744;28;20272;-79
2022/06/06 23:37:32;;;;;;;11.55;10.45;;;20.30;99.90;;;;;;10270290;28;20249;-78
2022/06/06 23:42:37;;;;;;;11.85;10.75;;;20.30;99.90;;;;;;10291808;28;20224;-78
2022/06/06 23:47:50;;;;;;;13.25;11.85;;;20.30;99.90;;;;;;10317020;28;20233;-78
2022/06/06 23:53:24;;;;;;;11.90;10.73;;;20.30;99.90;;;;;;10303741;28;20201;-78
2022/06/06 23:58:27;;;;;;;12.25;10.95;;;20.30;99.90;;;;;;10312939;28;20307;-78
